Time,TemperatureF,DewpointF,PressureIn,WindDirection,WindDirectionDegrees,WindSpeedMPH,WindSpeedGustMPH,Humidity,HourlyPrecipIn,Conditions,Clouds,dailyrainin,SolarRadiationWatts/m^2,SoftwareType,DateUTC
2013-08-28 00:01:00,65.9,64.1,30.07,East,85,0.0,0.0,94,0.00,CLR,,0.00,0.0,WeatherDisplay:10.37,2013-08-28 04:01:00,
2013-08-28 00:06:00,65.9,64.4,30.07,East,85,0.0,0.0,95,0.00,CLR,,0.00,0.0,WeatherDisplay:10.37,2013-08-28 04:06:00,
2013-08-28 00:11:00,65.9,64.4,30.07,East,85,0.0,0.0,95,0.00,CLR,,0.00,0.0,WeatherDisplay:10.37,2013-08-28 04:11:00,
2013-08-28 00:15:00,65.8,64.3,30.07,East,85,0.0,0.0,95,0.00,CLR,,0.00,0.0,WeatherDisplay:10.37,2013-08-28 04:15:00,
2013-08-28 00:20:00,65.9,64.4,30.07,East,85,0.0,0.0,95,0.00,CLR,,0.00,0.0,WeatherDisplay:10.37,2013-08-28 04:20:00,
2013-08-28 00:25:00,66.0,64.5,30.07,East,85,0.0,0.0,95,0.00,CLR,,0.00,0.0,WeatherDisplay:10.37,2013-08-28 04:25:00,
2013-08-28 00:30:00,65.9,64.4,30.07,East,85,0.0,0.0,95,0.00,CLR,,0.00,0.0,WeatherDisplay:10.37,2013-08-28 04:30:00,
2013-08-28 00:35:00,65.8,64.3,30.07,East,85,0.0,0.0,95,0.00,CLR,,0.00,0.0,WeatherDisplay:10.37,2013-08-28 04:35:00,
2013-08-28 00:40:00,65.9,64.7,30.07,East,85,0.0,0.0,96,0.00,CLR,,0.00,0.0,WeatherDisplay:10.37,2013-08-28 04:40:00,
2013-08-28 00:45:00,66.0,64.8,30.07,East,85,0.0,0.0,96,0.00,CLR,,0.00,0.0,WeatherDisplay:10.37,2013-08-28 04:45:00,
2013-08-28 00:50:00,66.1,64.6,30.07,East,85,0.0,0.0,95,0.00,CLR,,0.00,0.0,WeatherDisplay:10.37,2013-08-28 04:50:00,
2013-08-28 00:55:00,66.2,64.7,30.07,East,85,0.0,0.0,95,0.00,CLR,,0.00,0.0,WeatherDisplay:10.37,2013-08-28 04:55:00,
2013-08-28 01:00:00,66.3,65.1,30.06,East,85,0.0,0.0,96,0.00,CLR,,0.00,0.0,WeatherDisplay:10.37,2013-08-28 05:00:00,
2013-08-28 01:05:00,66.5,65.0,30.06,East,85,0.0,0.0,95,0.00,CLR,,0.00,0.0,WeatherDisplay:10.37,2013-08-28 05:05:00,
2013-08-28 01:10:00,66.5,65.0,30.06,East,85,0.0,0.0,95,0.00,CLR,,0.00,0.0,WeatherDisplay:10.37,2013-08-28 05:10:00,
2013-08-28 01:15:00,66.6,65.1,30.06,East,85,0.0,0.0,95,0.00,CLR,,0.00,0.0,WeatherDisplay:10.37,2013-08-28 05:15:00,
2013-08-28 01:20:00,66.5,64.7,30.06,East,85,0.0,0.0,94,0.00,CLR,,0.00,0.0,WeatherDisplay:10.37,2013-08-28 05:20:00,
2013-08-28 01:25:00,66.5,64.7,30.05,East,85,0.0,0.0,94,0.00,CLR,,0.00,0.0,WeatherDisplay:10.37,2013-08-28 05:25:00,
2013-08-28 01:30:00,66.3,64.5,30.05,East,85,0.0,0.0,94,0.00,CLR,,0.00,0.0,WeatherDisplay:10.37,2013-08-28 05:30:00,
2013-08-28 01:35:00,66.1,64.3,30.05,East,85,0.0,0.0,94,0.00,CLR,,0.00,0.0,WeatherDisplay:10.37,2013-08-28 05:35:00,
2013-08-28 01:40:00,66.1,64.6,30.05,East,85,0.0,0.0,95,0.00,CLR,,0.00,0.0,WeatherDisplay:10.37,2013-08-28 05:40:00,
2013-08-28 01:45:00,66.0,64.5,30.05,East,85,0.0,0.0,95,0.00,CLR,,0.00,0.0,WeatherDisplay:10.37,2013-08-28 05:45:00,
2013-08-28 01:50:00,66.0,64.5,30.05,East,85,0.0,0.0,95,0.00,CLR,,0.00,0.0,WeatherDisplay:10.37,2013-08-28 05:50:00,
2013-08-28 01:55:00,66.1,64.6,30.04,East,85,0.0,0.0,95,0.00,CLR,,0.00,0.0,WeatherDisplay:10.37,2013-08-28 05:55:00,
2013-08-28 02:00:00,66.0,64.5,30.04,East,85,0.0,0.0,95,0.00,CLR,,0.00,0.0,WeatherDisplay:10.37,2013-08-28 06:00:00,
2013-08-28 02:05:00,66.0,64.5,30.04,East,85,0.0,0.0,95,0.00,CLR,,0.00,0.0,WeatherDisplay:10.37,2013-08-28 06:05:00,
2013-08-28 02:10:00,65.9,64.7,30.04,East,85,0.0,0.0,96,0.00,CLR,,0.00,0.0,WeatherDisplay:10.37,2013-08-28 06:10:00,
2013-08-28 02:15:00,66.0,64.8,30.04,East,85,0.0,0.0,96,0.00,CLR,,0.00,0.0,WeatherDisplay:10.37,2013-08-28 06:15:00,
2013-08-28 02:20:00,66.0,64.8,30.04,East,85,0.0,0.0,96,0.00,CLR,,0.00,0.0,WeatherDisplay:10.37,2013-08-28 06:20:00,
2013-08-28 02:25:00,66.1,64.9,30.04,East,85,0.0,0.0,96,0.00,CLR,,0.00,0.0,WeatherDisplay:10.37,2013-08-28 06:25:00,
2013-08-28 02:30:00,66.1,64.9,30.04,East,85,0.0,0.0,96,0.00,CLR,,0.00,0.0,WeatherDisplay:10.37,2013-08-28 06:30:00,
2013-08-28 02:35:00,66.1,64.9,30.04,East,85,0.0,0.0,96,0.00,CLR,,0.00,0.0,WeatherDisplay:10.37,2013-08-28 06:35:00,
2013-08-28 02:40:00,66.0,64.5,30.04,East,85,0.0,0.0,95,0.00,CLR,,0.00,0.0,WeatherDisplay:10.37,2013-08-28 06:40:00,
2013-08-28 02:45:00,65.9,64.7,30.04,East,85,0.0,0.0,96,0.00,CLR,,0.00,0.0,WeatherDisplay:10.37,2013-08-28 06:45:00,
2013-08-28 02:50:00,66.0,64.8,30.03,East,85,0.0,0.0,96,0.00,CLR,,0.00,0.0,WeatherDisplay:10.37,2013-08-28 06:50:00,
2013-08-28 02:55:00,66.1,64.9,30.03,East,85,0.0,0.0,96,0.00,CLR,,0.00,0.0,WeatherDisplay:10.37,2013-08-28 06:55:00,
2013-08-28 03:00:00,66.1,64.9,30.03,East,85,0.0,0.0,96,0.00,CLR,,0.00,0.0,WeatherDisplay:10.37,2013-08-28 07:00:00,
2013-08-28 03:05:00,66.1,64.9,30.03,East,85,0.0,0.0,96,0.00,CLR,,0.00,0.0,WeatherDisplay:10.37,2013-08-28 07:05:00,
2013-08-28 03:10:00,66.1,64.9,30.03,East,85,0.0,0.0,96,0.00,CLR,,0.00,0.0,WeatherDisplay:10.37,2013-08-28 07:10:00,
2013-08-28 03:15:00,65.9,64.4,30.03,East,85,0.0,0.0,95,0.00,CLR,,0.00,0.0,WeatherDisplay:10.37,2013-08-28 07:15:00,
2013-08-28 03:20:00,65.8,64.3,30.02,East,85,0.0,0.0,95,0.00,CLR,,0.00,0.0,WeatherDisplay:10.37,2013-08-28 07:20:00,
2013-08-28 03:25:00,65.8,64.6,30.02,East,85,0.0,0.0,96,0.00,CLR,,0.00,0.0,WeatherDisplay:10.37,2013-08-28 07:25:00,
2013-08-28 03:30:00,65.7,64.5,30.02,East,85,0.0,0.0,96,0.00,CLR,,0.00,0.0,WeatherDisplay:10.37,2013-08-28 07:30:00,
2013-08-28 03:35:00,65.5,64.0,30.02,East,85,0.0,0.0,95,0.00,CLR,,0.00,0.0,WeatherDisplay:10.37,2013-08-28 07:35:00,
2013-08-28 03:40:00,65.5,64.3,30.02,East,85,0.0,0.0,96,0.00,CLR,,0.00,0.0,WeatherDisplay:10.37,2013-08-28 07:40:00,
2013-08-28 03:45:00,65.7,64.5,30.02,East,85,0.0,0.0,96,0.00,CLR,,0.00,0.0,WeatherDisplay:10.37,2013-08-28 07:45:00,
2013-08-28 03:50:00,65.8,64.9,30.02,East,85,0.0,0.0,97,0.00,CLR,,0.00,0.0,WeatherDisplay:10.37,2013-08-28 07:50:00,
2013-08-28 03:55:00,65.8,64.6,30.02,East,85,0.0,0.0,96,0.00,CLR,,0.00,0.0,WeatherDisplay:10.37,2013-08-28 07:55:00,
2013-08-28 04:00:00,65.4,63.9,30.02,East,85,0.0,0.0,95,0.00,CLR,,0.00,0.0,WeatherDisplay:10.37,2013-08-28 08:00:00,
2013-08-28 04:05:00,65.2,64.0,30.02,East,85,0.0,0.0,96,0.00,CLR,,0.00,0.0,WeatherDisplay:10.37,2013-08-28 08:05:00,
2013-08-28 04:10:00,65.3,64.1,30.02,East,85,0.0,0.0,96,0.00,CLR,,0.00,0.0,WeatherDisplay:10.37,2013-08-28 08:10:00,
2013-08-28 04:15:00,65.5,64.6,30.01,East,85,0.0,0.0,97,0.00,CLR,,0.00,0.0,WeatherDisplay:10.37,2013-08-28 08:15:00,
2013-08-28 04:20:00,65.4,64.2,30.01,East,85,0.0,0.0,96,0.00,CLR,,0.00,0.0,WeatherDisplay:10.37,2013-08-28 08:20:00,
2013-08-28 04:25:00,65.6,64.7,30.01,East,85,0.0,0.0,97,0.00,CLR,,0.00,0.0,WeatherDisplay:10.37,2013-08-28 08:25:00,
2013-08-28 04:30:00,65.9,65.0,30.01,East,85,0.0,0.0,97,0.00,CLR,,0.00,0.0,WeatherDisplay:10.37,2013-08-28 08:30:00,
2013-08-28 04:35:00,66.1,65.2,30.01,East,85,0.0,0.0,97,0.00,CLR,,0.00,0.0,WeatherDisplay:10.37,2013-08-28 08:35:00,
2013-08-28 04:40:00,66.2,65.0,30.01,East,85,0.0,0.0,96,0.00,CLR,,0.00,0.0,WeatherDisplay:10.37,2013-08-28 08:40:00,
2013-08-28 04:45:00,66.3,65.1,30.00,East,85,0.0,0.0,96,0.00,CLR,,0.00,0.0,WeatherDisplay:10.37,2013-08-28 08:45:00,
2013-08-28 04:50:00,66.5,65.3,30.01,East,85,0.0,0.0,96,0.00,CLR,,0.00,0.0,WeatherDisplay:10.37,2013-08-28 08:50:00,
2013-08-28 04:55:00,66.7,65.2,30.01,East,85,0.0,0.0,95,0.00,CLR,,0.00,0.0,WeatherDisplay:10.37,2013-08-28 08:55:00,
2013-08-28 05:00:00,66.7,64.9,30.01,East,85,0.0,0.0,94,0.00,CLR,,0.00,0.0,WeatherDisplay:10.37,2013-08-28 09:00:00,
2013-08-28 05:05:00,66.5,64.7,30.01,East,85,0.0,0.0,94,0.00,CLR,,0.00,0.0,WeatherDisplay:10.37,2013-08-28 09:05:00,
2013-08-28 05:10:00,66.5,65.0,30.01,East,85,0.0,0.0,95,0.00,CLR,,0.00,0.0,WeatherDisplay:10.37,2013-08-28 09:10:00,
2013-08-28 05:15:00,66.6,65.1,30.01,East,85,0.0,0.0,95,0.00,CLR,,0.00,0.0,WeatherDisplay:10.37,2013-08-28 09:15:00,
2013-08-28 05:20:00,66.9,65.4,30.01,East,85,0.0,0.0,95,0.00,CLR,,0.00,0.0,WeatherDisplay:10.37,2013-08-28 09:20:00,
2013-08-28 05:25:00,67.5,66.0,30.01,East,85,0.0,0.0,95,0.00,CLR,,0.00,0.0,WeatherDisplay:10.37,2013-08-28 09:25:00,
2013-08-28 05:30:00,67.8,65.7,30.02,East,85,0.0,0.0,93,0.00,CLR,,0.00,0.0,WeatherDisplay:10.37,2013-08-28 09:30:00,
2013-08-28 05:34:00,68.0,65.9,30.02,East,85,0.0,0.0,93,0.00,CLR,,0.00,0.0,WeatherDisplay:10.37,2013-08-28 09:34:00,
2013-08-28 05:39:00,68.0,65.9,30.02,East,85,0.0,0.0,93,0.00,CLR,,0.00,0.0,WeatherDisplay:10.37,2013-08-28 09:39:00,
2013-08-28 05:44:00,68.0,65.9,30.02,East,85,0.0,0.0,93,0.00,CLR,,0.00,0.0,WeatherDisplay:10.37,2013-08-28 09:44:00,
2013-08-28 05:49:00,68.1,66.0,30.02,East,83,0.0,0.0,93,0.00,CLR,,0.00,0.0,WeatherDisplay:10.37,2013-08-28 09:49:00,
2013-08-28 05:54:00,68.5,66.4,30.02,ENE,72,0.0,0.0,93,0.00,CLR,,0.00,0.0,WeatherDisplay:10.37,2013-08-28 09:54:00,
2013-08-28 05:59:00,69.0,66.6,30.02,ENE,69,0.0,0.0,92,0.00,CLR,,0.00,0.0,WeatherDisplay:10.37,2013-08-28 09:59:00,
2013-08-28 06:04:00,69.2,66.5,30.02,ENE,69,0.0,0.0,91,0.00,CLR,,0.00,0.0,WeatherDisplay:10.37,2013-08-28 10:04:00,
2013-08-28 06:09:00,69.4,66.7,30.01,ENE,69,0.0,0.0,91,0.00,CLR,,0.00,0.0,WeatherDisplay:10.37,2013-08-28 10:09:00,
2013-08-28 06:14:00,69.6,66.5,30.02,ENE,69,0.0,0.0,90,0.00,CLR,,0.00,0.0,WeatherDisplay:10.37,2013-08-28 10:14:00,
2013-08-28 06:19:00,69.8,66.7,30.02,ENE,69,0.0,0.0,90,0.00,CLR,,0.00,0.0,WeatherDisplay:10.37,2013-08-28 10:19:00,
2013-08-28 06:24:00,69.6,65.6,30.02,ENE,69,0.0,0.0,87,0.00,CLR,,0.00,0.0,WeatherDisplay:10.37,2013-08-28 10:24:00,
2013-08-28 06:29:00,69.0,65.3,30.02,ENE,69,0.0,0.0,88,0.00,CLR,,0.00,0.0,WeatherDisplay:10.37,2013-08-28 10:29:00,
2013-08-28 06:34:00,68.3,64.9,30.02,ENE,69,0.0,0.0,89,0.00,CLR,,0.00,0.0,WeatherDisplay:10.37,2013-08-28 10:34:00,
2013-08-28 06:39:00,67.7,64.7,30.03,ENE,69,0.0,0.0,90,0.00,CLR,,0.00,0.0,WeatherDisplay:10.37,2013-08-28 10:39:00,
2013-08-28 06:44:00,67.5,65.1,30.03,ENE,69,0.0,0.0,92,0.00,CLR,,0.00,0.0,WeatherDisplay:10.37,2013-08-28 10:44:00,
2013-08-28 06:49:00,67.6,65.5,30.03,ENE,69,0.0,0.0,93,0.00,CLR,,0.00,0.0,WeatherDisplay:10.37,2013-08-28 10:49:00,
2013-08-28 06:54:00,67.6,65.5,30.03,ENE,69,0.0,0.0,93,0.00,CLR,,0.00,0.0,WeatherDisplay:10.37,2013-08-28 10:54:00,
2013-08-28 06:59:00,67.6,65.8,30.03,ENE,69,0.0,0.0,94,0.00,CLR,,0.00,0.0,WeatherDisplay:10.37,2013-08-28 10:59:00,
2013-08-28 07:04:00,67.7,65.9,30.03,ENE,69,0.0,0.0,94,0.00,CLR,,0.00,0.0,WeatherDisplay:10.37,2013-08-28 11:04:00,
2013-08-28 07:09:00,67.7,65.9,30.02,ENE,69,0.0,0.0,94,0.00,CLR,,0.00,0.0,WeatherDisplay:10.37,2013-08-28 11:09:00,
2013-08-28 07:14:00,67.9,66.1,30.02,ENE,69,0.0,0.0,94,0.00,CLR,,0.00,5.0,WeatherDisplay:10.37,2013-08-28 11:14:00,
2013-08-28 07:19:00,68.0,66.2,30.03,ENE,69,0.0,0.0,94,0.00,CLR,,0.00,7.0,WeatherDisplay:10.37,2013-08-28 11:19:00,
2013-08-28 07:24:00,68.2,66.4,30.03,ENE,69,0.0,0.0,94,0.00,CLR,,0.00,11.0,WeatherDisplay:10.37,2013-08-28 11:24:00,
2013-08-28 07:29:00,68.3,66.5,30.03,ENE,69,0.0,0.0,94,0.00,CLR,,0.00,14.0,WeatherDisplay:10.37,2013-08-28 11:29:00,
2013-08-28 07:34:00,68.4,66.6,30.03,ENE,69,0.0,0.0,94,0.00,CLR,,0.00,16.0,WeatherDisplay:10.37,2013-08-28 11:34:00,
2013-08-28 07:39:00,68.5,66.4,30.03,ENE,69,0.0,0.0,93,0.00,CLR,,0.00,19.0,WeatherDisplay:10.37,2013-08-28 11:39:00,
2013-08-28 07:44:00,68.5,66.7,30.04,ENE,69,0.0,0.0,94,0.00,CLR,,0.00,25.0,WeatherDisplay:10.37,2013-08-28 11:44:00,
2013-08-28 07:49:00,68.6,66.8,30.04,ENE,69,0.0,0.0,94,0.00,CLR,,0.00,26.0,WeatherDisplay:10.37,2013-08-28 11:49:00,
2013-08-28 07:54:00,68.6,66.5,30.04,ENE,69,0.0,0.0,93,0.00,CLR,,0.00,30.0,WeatherDisplay:10.37,2013-08-28 11:54:00,
2013-08-28 07:59:00,68.6,66.8,30.04,ENE,69,0.0,0.0,94,0.00,CLR,,0.00,32.0,WeatherDisplay:10.37,2013-08-28 11:59:00,
2013-08-28 08:04:00,68.6,66.8,30.04,ENE,69,0.0,0.0,94,0.00,CLR,,0.00,39.0,WeatherDisplay:10.37,2013-08-28 12:04:00,
2013-08-28 08:09:00,68.7,66.9,30.04,ENE,69,0.0,0.0,94,0.00,CLR,,0.00,47.0,WeatherDisplay:10.37,2013-08-28 12:09:00,
2013-08-28 08:14:00,68.8,67.3,30.04,ENE,69,0.0,0.0,95,0.00,CLR,,0.00,56.0,WeatherDisplay:10.37,2013-08-28 12:14:00,
2013-08-28 08:19:00,68.9,67.4,30.04,ENE,69,0.0,0.0,95,0.00,CLR,,0.00,63.0,WeatherDisplay:10.37,2013-08-28 12:19:00,
2013-08-28 08:24:00,69.0,67.5,30.03,ENE,69,0.0,0.0,95,0.00,CLR,,0.00,70.0,WeatherDisplay:10.37,2013-08-28 12:24:00,
2013-08-28 08:29:00,69.0,67.5,30.04,ENE,69,0.0,0.0,95,0.00,CLR,,0.00,69.0,WeatherDisplay:10.37,2013-08-28 12:29:00,
2013-08-28 08:34:00,69.2,67.7,30.04,ENE,69,0.0,0.0,95,0.00,CLR,,0.00,65.0,WeatherDisplay:10.37,2013-08-28 12:34:00,
2013-08-28 08:39:00,69.3,67.8,30.03,ENE,69,0.0,0.0,95,0.00,CLR,,0.00,62.0,WeatherDisplay:10.37,2013-08-28 12:39:00,
2013-08-28 08:44:00,69.6,68.1,30.04,ENE,69,0.0,0.0,95,0.00,CLR,,0.00,56.0,WeatherDisplay:10.37,2013-08-28 12:44:00,
2013-08-28 08:49:00,69.8,68.0,30.03,ENE,61,0.0,0.0,94,0.00,CLR,,0.00,60.0,WeatherDisplay:10.37,2013-08-28 12:49:00,
2013-08-28 08:54:00,69.9,68.1,30.03,ENE,59,0.0,0.0,94,0.00,CLR,,0.00,86.0,WeatherDisplay:10.37,2013-08-28 12:54:00,
2013-08-28 08:59:00,70.2,68.7,30.03,ENE,59,0.0,0.0,95,0.00,CLR,,0.00,155.0,WeatherDisplay:10.37,2013-08-28 12:59:00,
2013-08-28 09:04:00,70.4,68.6,30.03,ENE,59,0.0,0.0,94,0.00,OVC,,0.00,267.0,WeatherDisplay:10.37,2013-08-28 13:04:00,
2013-08-28 09:09:00,70.8,69.0,30.03,ENE,59,0.0,0.0,94,0.00,OVC,,0.00,151.0,WeatherDisplay:10.37,2013-08-28 13:09:00,
2013-08-28 09:14:00,71.2,69.1,30.03,ENE,58,0.0,0.0,93,0.00,OVC,,0.00,265.0,WeatherDisplay:10.37,2013-08-28 13:14:00,
2013-08-28 09:19:00,71.9,69.8,30.03,NE,56,0.0,0.0,93,0.00,OVC,,0.00,285.0,WeatherDisplay:10.37,2013-08-28 13:19:00,
2013-08-28 09:24:00,72.9,69.8,30.03,NE,53,0.0,0.0,90,0.00,OVC,,0.00,323.0,WeatherDisplay:10.37,2013-08-28 13:24:00,
2013-08-28 09:29:00,73.7,70.3,30.03,NE,51,0.0,0.0,89,0.00,OVC,,0.00,322.0,WeatherDisplay:10.37,2013-08-28 13:29:00,
2013-08-28 09:34:00,74.5,70.7,30.03,NE,51,0.0,0.0,88,0.00,OVC,,0.00,369.0,WeatherDisplay:10.37,2013-08-28 13:34:00,
2013-08-28 09:39:00,75.2,70.4,30.03,NE,51,0.0,0.0,85,0.00,OVC,,0.00,381.0,WeatherDisplay:10.37,2013-08-28 13:39:00,
2013-08-28 09:44:00,75.8,70.3,30.03,NE,39,0.0,0.0,83,0.00,OVC,,0.00,394.0,WeatherDisplay:10.37,2013-08-28 13:44:00,
2013-08-28 09:49:00,76.3,69.7,30.03,NNE,17,0.0,0.0,80,0.00,OVC,,0.00,410.0,WeatherDisplay:10.37,2013-08-28 13:49:00,
2013-08-28 09:54:00,76.7,70.1,30.03,NE,38,0.0,0.0,80,0.00,OVC,,0.00,390.0,WeatherDisplay:10.37,2013-08-28 13:54:00,
2013-08-28 09:59:00,76.9,69.1,30.03,NE,40,0.0,0.0,77,0.00,OVC,,0.00,448.0,WeatherDisplay:10.37,2013-08-28 13:59:00,
2013-08-28 10:04:00,77.3,69.9,30.03,NE,46,0.0,0.0,78,0.00,OVC,,0.00,459.0,WeatherDisplay:10.37,2013-08-28 14:04:00,
2013-08-28 10:09:00,77.6,70.2,30.03,NE,47,0.0,0.0,78,0.00,OVC,,0.00,425.0,WeatherDisplay:10.37,2013-08-28 14:09:00,
2013-08-28 10:14:00,77.9,69.3,30.03,NNE,30,0.0,0.0,75,0.00,OVC,,0.00,301.0,WeatherDisplay:10.37,2013-08-28 14:14:00,
2013-08-28 10:19:00,78.2,70.4,30.03,NNE,28,0.0,0.0,77,0.00,OVC,,0.00,506.0,WeatherDisplay:10.37,2013-08-28 14:19:00,
2013-08-28 10:24:00,78.4,69.8,30.03,NNE,26,0.0,0.0,75,0.00,OVC,,0.00,362.0,WeatherDisplay:10.37,2013-08-28 14:24:00,